Time;durP1;ratioP1;P1;durP2;ratioP2;P2;SDS_P1;SDS_P2;PMS_P1;PMS_P2;Temp;Humidity;BMP_temperature;BMP_pressure;BME280_temperature;BME280_humidity;BME280_pressure;Samples;Min_cycle;Max_cycle;Signal;HPM_P1;HPM_P2
2021/06/11 00:01:02;;;;;;;0.82;0.40;;;;;;;18.34;33.17;98747.09;5115726;28;20032;-58
2021/06/11 00:03:27;;;;;;;1.52;0.70;;;;;;;19.18;32.64;98747.00;5115563;28;20031;-57
2021/06/11 00:05:53;;;;;;;1.35;0.45;;;;;;;19.93;31.80;98754.00;5115510;28;20400;-58
2021/06/11 00:08:20;;;;;;;0.20;0.20;;;;;;;20.56;31.23;98760.34;5113905;28;20020;-58
2021/06/11 00:10:46;;;;;;;2.20;0.40;;;;;;;21.18;30.87;98751.81;5115393;28;20031;-58
2021/06/11 00:13:11;;;;;;;2.67;0.63;;;;;;;21.73;30.51;98757.84;5115469;28;20046;-58
2021/06/11 00:15:37;;;;;;;1.00;0.30;;;;;;;22.25;30.04;98757.59;5115132;28;20031;-59
2021/06/11 00:18:04;;;;;;;0.95;0.50;;;;;;;22.68;29.91;98749.59;5115010;28;20027;-59
2021/06/11 00:20:30;;;;;;;1.65;0.40;;;;;;;23.24;29.67;98754.97;5115288;28;20028;-59
2021/06/11 00:22:56;;;;;;;3.53;0.57;;;;;;;23.83;28.68;98754.75;5115163;28;20031;-58
2021/06/11 00:25:25;;;;;;;0.82;0.82;;;;;;;24.37;28.27;98763.00;5114853;28;20058;-59
2021/06/11 00:27:52;;;;;;;0.47;0.47;;;;;;;24.93;28.00;98759.59;5113441;28;20027;-58
2021/06/11 00:30:20;;;;;;;0.20;0.20;;;;;;;25.45;27.78;98761.50;5114994;28;20031;-58
2021/06/11 00:32:46;;;;;;;0.30;0.30;;;;;;;25.95;27.27;98763.59;5115119;28;20027;-57
2021/06/11 00:35:13;;;;;;;4.40;0.60;;;;;;;26.46;26.78;98768.47;5115175;28;20115;-57
2021/06/11 00:37:39;;;;;;;1.50;1.40;;;;;;;26.95;26.41;98765.97;5115219;28;20025;-58
2021/06/11 00:40:08;;;;;;;0.32;0.32;;;;;;;27.43;25.98;98763.69;5115086;28;20035;-58
2021/06/11 00:42:34;;;;;;;0.43;0.38;;;;;;;27.93;25.45;98767.38;5115101;28;20485;-59
2021/06/11 00:45:01;;;;;;;0.82;0.50;;;;;;;28.32;25.39;98765.06;5114663;28;20073;-58
2021/06/11 00:47:27;;;;;;;1.10;0.45;;;;;;;28.77;25.17;98774.50;5114777;28;20055;-59
2021/06/11 00:49:52;;;;;;;0.35;0.35;;;;;;;29.11;25.06;98775.94;5114919;28;20455;-58
2021/06/11 00:52:18;;;;;;;0.55;0.40;;;;;;;29.55;24.61;98775.16;5114793;28;20020;-58
2021/06/11 00:54:45;;;;;;;0.20;0.20;;;;;;;29.89;24.32;98761.50;5114421;28;20039;-57
2021/06/11 00:57:12;;;;;;;0.80;0.52;;;;;;;30.15;24.14;98768.59;5114548;28;20403;-58
2021/06/11 00:59:43;;;;;;;0.55;0.55;;;;;;;30.31;23.92;98766.56;5114167;28;20036;-57
2021/06/11 01:02:10;;;;;;;0.68;0.40;;;;;;;30.53;23.94;98773.56;5112771;28;20039;-58
2021/06/11 01:04:37;;;;;;;1.13;0.95;;;;;;;30.88;23.42;98774.75;5114305;28;20477;-58
2021/06/11 01:07:05;;;;;;;1.92;0.73;;;;;;;31.17;23.26;98767.69;5114190;28;20031;-58
2021/06/11 01:09:34;;;;;;;0.80;0.80;;;;;;;31.47;23.13;98769.88;5113342;28;20433;-58
2021/06/11 01:12:00;;;;;;;1.33;0.82;;;;;;;31.67;22.85;98775.53;5114397;28;20023;-58
2021/06/11 01:14:26;;;;;;;1.38;1.13;;;;;;;32.00;22.88;98782.59;5114148;28;20034;-58
2021/06/11 01:16:52;;;;;;;1.02;0.63;;;;;;;32.25;22.57;98777.34;5113828;28;20106;-58
2021/06/11 01:19:25;;;;;;;1.00;1.00;;;;;;;32.53;22.28;98770.47;5114413;28;20024;-59
2021/06/11 01:22:24;;;;;;;0.40;0.40;;;;;;;32.95;21.90;98775.09;5114155;28;20039;-58
2021/06/11 01:25:12;;;;;;;1.23;0.65;;;;;;;33.11;21.74;98775.75;5111401;28;20477;-59
2021/06/11 01:27:40;;;;;;;3.40;0.60;;;;;;;33.34;21.94;98777.66;5112289;28;20063;-58
2021/06/11 01:30:20;;;;;;;1.48;1.08;;;;;;;33.84;21.22;98772.50;5113878;28;20040;-57
2021/06/11 01:32:48;;;;;;;1.35;0.60;;;;;;;34.22;20.87;98783.81;5113851;28;20028;-60
2021/06/11 01:35:19;;;;;;;1.13;0.77;;;;;;;34.63;20.90;98777.16;5113364;28;20039;-58
2021/06/11 01:37:48;;;;;;;0.73;0.73;;;;;;;35.01;20.66;98772.94;5112130;28;20401;-58
2021/06/11 01:40:15;;;;;;;0.20;0.20;;;;;;;35.36;20.16;98776.31;5113951;28;20068;-59
2021/06/11 01:42:45;;;;;;;0.32;0.32;;;;;;;35.69;20.07;98780.06;5113833;28;20249;-58
2021/06/11 01:45:12;;;;;;;0.80;0.80;;;;;;;36.04;19.66;98778.50;5113224;28;20531;-58
2021/06/11 01:47:44;;;;;;;0.45;0.45;;;;;;;36.39;19.74;98783.38;5113403;28;20024;-58
2021/06/11 01:50:13;;;;;;;0.65;0.57;;;;;;;36.71;19.73;98779.66;5113676;28;20032;-58
2021/06/11 01:52:40;;;;;;;0.40;0.40;;;;;;;36.96;19.61;98791.03;5113105;28;20370;-59
2021/06/11 01:55:07;;;;;;;0.70;0.52;;;;;;;37.34;19.29;98785.59;5113320;28;20069;-58
2021/06/11 01:57:34;;;;;;;0.52;0.52;;;;;;;37.71;18.69;98794.78;5111556;28;20027;-59
2021/06/11 02:00:02;;;;;;;0.88;0.52;;;;;;;38.28;18.13;98784.16;5112846;28;20128;-59
2021/06/11 02:02:28;;;;;;;0.40;0.40;;;;;;;38.99;18.00;98788.34;5113491;28;20024;-59
2021/06/11 02:04:56;;;;;;;1.77;0.68;;;;;;;39.14;17.63;98788.22;5113079;28;20027;-58
2021/06/11 02:07:24;;;;;;;3.47;0.82;;;;;;;39.32;17.82;98794.50;5113364;28;20032;-59
2021/06/11 02:09:51;;;;;;;2.50;0.63;;;;;;;39.86;17.24;98805.25;5111504;28;20051;-59
2021/06/11 02:12:18;;;;;;;0.95;0.95;;;;;;;40.66;16.77;98803.97;5111822;28;20038;-58
2021/06/11 02:14:45;;;;;;;0.88;0.88;;;;;;;40.85;16.49;98802.38;5112816;28;20515;-59
2021/06/11 02:17:12;;;;;;;0.73;0.73;;;;;;;40.81;16.86;98805.31;5112663;28;20580;-59
2021/06/11 02:19:39;;;;;;;1.08;0.98;;;;;;;40.61;17.06;98813.94;5112588;28;20042;-60
2021/06/11 02:22:08;;;;;;;0.60;0.60;;;;;;;40.71;17.07;98817.84;5112985;28;20038;-59
2021/06/11 02:24:34;;;;;;;1.20;0.50;;;;;;;40.80;17.02;98820.97;5112371;28;20071;-59
2021/06/11 02:27:01;;;;;;;1.23;0.40;;;;;;;41.06;16.90;98810.59;5113020;28;20126;-58
2021/06/11 02:29:27;;;;;;;0.63;0.57;;;;;;;41.29;16.70;98823.28;5112785;28;20020;-59
2021/06/11 02:31:53;;;;;;;1.00;0.60;;;;;;;41.63;16.54;98825.06;5112980;28;20027;-59
2021/06/11 02:34:19;;;;;;;0.45;0.45;;;;;;;41.96;16.01;98836.66;5112674;28;20035;-58
2021/06/11 02:36:45;;;;;;;0.22;0.22;;;;;;;42.16;16.23;98834.50;5112810;28;20083;-59
2021/06/11 02:39:10;;;;;;;1.45;0.50;;;;;;;42.34;16.02;98833.28;5112927;28;20047;-59
2021/06/11 02:41:41;;;;;;;0.47;0.47;;;;;;;42.55;15.71;98826.13;5112464;28;20412;-60
2021/06/11 02:44:08;;;;;;;0.40;0.40;;;;;;;42.76;15.63;98830.56;5112811;28;20027;-59
2021/06/11 02:46:47;;;;;;;1.42;1.08;;;;;;;42.95;15.71;98836.63;5112701;28;20040;-59
2021/06/11 02:49:37;;;;;;;0.45;0.45;;;;;;;43.15;15.39;98828.66;5112722;28;20435;-62
2021/06/11 02:52:06;;;;;;;0.80;0.80;;;;;;;43.25;15.54;98831.69;5112594;28;20046;-59
2021/06/11 02:54:39;;;;;;;0.50;0.38;;;;;;;43.38;15.27;98823.88;5112490;28;20052;-59
2021/06/11 02:57:13;;;;;;;0.75;0.75;;;;;;;43.54;15.49;98828.75;5112609;28;20036;-59
2021/06/11 02:59:43;;;;;;;0.40;0.40;;;;;;;43.81;15.25;98825.44;5112896;28;20161;-59
2021/06/11 03:02:13;;;;;;;1.80;0.93;;;;;;;44.02;14.98;98834.72;5112696;28;20035;-59
2021/06/11 03:04:45;;;;;;;0.30;0.30;;;;;;;44.16;14.58;98822.69;5112895;28;20020;-60
2021/06/11 03:07:21;;;;;;;0.22;0.20;;;;;;;44.32;15.03;98826.72;5112288;28;20108;-59
2021/06/11 03:09:48;;;;;;;0.40;0.40;;;;;;;44.53;14.33;98830.97;5112424;28;20405;-59
2021/06/11 03:12:16;;;;;;;0.70;0.63;;;;;;;44.67;14.60;98836.28;5112671;28;20066;-59
2021/06/11 03:14:44;;;;;;;0.38;0.35;;;;;;;44.64;14.75;98821.94;5112612;28;20114;-58
2021/06/11 03:17:11;;;;;;;0.55;0.50;;;;;;;44.71;14.83;98833.25;5112424;28;20035;-60
2021/06/11 03:19:41;;;;;;;0.57;0.57;;;;;;;44.81;14.61;98826.28;5112296;28;20032;-60
2021/06/11 03:22:15;;;;;;;0.10;0.10;;;;;;;45.04;14.31;98827.13;5112204;28;20119;-60
2021/06/11 03:24:59;;;;;;;0.10;0.10;;;;;;;45.25;14.10;98829.22;5112164;28;20570;-60
2021/06/11 03:27:34;;;;;;;0.10;0.10;;;;;;;45.25;14.31;98829.22;5112146;28;20036;-60
2021/06/11 03:30:13;;;;;;;0.68;0.50;;;;;;;45.40;13.77;98823.69;5110862;28;20032;-59
2021/06/11 03:32:46;;;;;;;0.40;0.40;;;;;;;45.39;14.07;98827.06;5113545;28;20046;-59
2021/06/11 03:35:26;;;;;;;0.20;0.20;;;;;;;45.37;13.84;98829.63;5114436;28;20035;-60
2021/06/11 03:37:58;;;;;;;0.25;0.25;;;;;;;45.37;13.85;98824.63;5115892;28;20040;-60
2021/06/11 03:40:32;;;;;;;0.30;0.30;;;;;;;45.37;14.00;98820.94;5116118;28;20027;-60
2021/06/11 03:42:58;;;;;;;0.20;0.20;;;;;;;45.38;14.04;98825.41;5116022;28;20035;-63
2021/06/11 03:45:25;;;;;;;0.95;0.20;;;;;;;45.48;13.51;98830.03;5114133;28;20123;-60
2021/06/11 07:31:07;;;;;;;0.15;0.15;;;;;;;22.42;21.59;98840.88;4757930;30;20055;-59
2021/06/11 07:33:33;;;;;;;0.20;0.20;;;;;;;22.49;21.53;98844.91;4731943;30;20053;-59
2021/06/11 07:35:59;;;;;;;0.20;0.20;;;;;;;22.66;21.42;98841.47;4714755;30;20517;-60
2021/06/11 07:38:25;;;;;;;0.20;0.20;;;;;;;22.93;21.18;98836.94;4715174;30;20053;-60
2021/06/11 07:40:53;;;;;;;0.10;0.10;;;;;;;23.22;20.78;98846.91;4712930;30;20479;-60
2021/06/11 07:43:22;;;;;;;0.10;0.10;;;;;;;23.36;20.93;98842.06;4714401;30;20144;-60
2021/06/11 07:45:50;;;;;;;0.68;0.38;;;;;;;23.28;21.04;98842.84;4715138;30;20514;-59
2021/06/11 07:48:16;;;;;;;0.10;0.10;;;;;;;23.15;21.03;98846.53;4725148;30;20044;-59
2021/06/11 07:50:42;;;;;;;0.75;0.68;;;;;;;22.95;21.53;98848.63;4750763;30;20035;-61
2021/06/11 07:53:08;;;;;;;0.45;0.45;;;;;;;22.69;21.58;98848.41;4785080;30;20563;-59
2021/06/11 07:55:34;;;;;;;0.15;0.15;;;;;;;22.37;21.94;98845.44;4868733;29;20038;-60
2021/06/11 07:58:00;;;;;;;0.10;0.10;;;;;;;22.31;22.13;98846.66;4877773;29;20048;-60
2021/06/11 08:00:29;;;;;;;0.10;0.10;;;;;;;22.14;22.18;98852.91;4901756;29;20492;-60
2021/06/11 08:02:56;;;;;;;0.20;0.20;;;;;;;21.97;22.34;98841.50;4952523;29;20107;-58
2021/06/11 08:05:23;;;;;;;0.10;0.10;;;;;;;22.12;22.31;98838.38;4980623;28;20647;-59
2021/06/11 08:07:49;;;;;;;0.10;0.10;;;;;;;22.40;21.83;98835.59;5028956;28;20127;-60
2021/06/11 08:10:15;;;;;;;0.10;0.10;;;;;;;22.68;21.43;98844.75;5113333;28;20110;-60
2021/06/11 08:12:40;;;;;;;0.10;0.10;;;;;;;22.81;21.39;98839.47;5112530;28;20035;-60
2021/06/11 08:15:07;;;;;;;0.32;0.30;;;;;;;22.90;21.27;98840.38;5113062;28;20032;-59
2021/06/11 08:17:35;;;;;;;0.10;0.10;;;;;;;23.01;21.41;98840.94;5111920;28;20036;-59
2021/06/11 08:20:01;;;;;;;0.00;0.00;;;;;;;23.12;21.13;98847.16;5112712;28;20059;-61
2021/06/11 08:22:26;;;;;;;0.55;0.30;;;;;;;23.04;21.64;98846.75;5112351;28;20074;-61
2021/06/11 08:24:52;;;;;;;0.50;0.22;;;;;;;22.95;21.62;98848.63;5112169;28;20059;-59
2021/06/11 08:27:18;;;;;;;0.22;0.22;;;;;;;22.91;21.52;98856.03;5112822;28;20035;-59
2021/06/11 08:29:44;;;;;;;0.20;0.20;;;;;;;22.86;21.80;98853.31;5112219;28;20497;-59
2021/06/11 08:32:10;;;;;;;0.45;0.45;;;;;;;22.82;21.75;98843.91;5112807;28;20028;-60
2021/06/11 08:34:36;;;;;;;0.10;0.10;;;;;;;22.92;21.79;98844.50;5094530;28;20042;-60
2021/06/11 08:37:06;;;;;;;0.93;0.65;;;;;;;23.14;21.28;98834.47;5093876;28;20079;-59
2021/06/11 08:39:34;;;;;;;0.70;0.70;;;;;;;23.34;21.17;98841.56;5112645;28;20032;-58
2021/06/11 08:42:00;;;;;;;0.10;0.10;;;;;;;23.60;21.01;98826.88;5112245;28;20133;-60
2021/06/11 08:44:27;;;;;;;0.00;0.00;;;;;;;23.78;20.97;98828.63;5112200;28;20035;-58
2021/06/11 08:50:28;;;;;;;0.10;0.10;;;;;;;23.90;20.93;98827.22;5052415;28;20049;-60
2021/06/11 08:52:55;;;;;;;0.10;0.10;;;;;;;23.87;20.93;98834.31;5057437;28;20040;-59
2021/06/11 08:55:21;;;;;;;0.10;0.10;;;;;;;23.86;21.04;98831.81;5058094;28;20641;-62
2021/06/11 08:57:47;;;;;;;0.20;0.20;;;;;;;23.73;21.27;98831.59;5061979;28;20032;-60
2021/06/11 09:00:13;;;;;;;0.10;0.10;;;;;;;23.54;21.55;98825.34;5033143;28;20063;-61
2021/06/11 09:03:07;;;;;;;0.05;0.05;;;;;;;23.50;21.61;98819.56;5055933;28;20502;-60
2021/06/11 09:05:34;;;;;;;0.10;0.10;;;;;;;23.54;21.58;98819.75;5056224;28;20075;-61
2021/06/11 09:08:21;;;;;;;0.10;0.10;;;;;;;23.32;21.69;98827.06;5056305;28;20462;-59
2021/06/11 09:10:49;;;;;;;0.75;0.38;;;;;;;23.06;22.09;98838.84;5049927;28;20510;-60
2021/06/11 09:13:26;;;;;;;0.13;0.13;;;;;;;22.86;22.42;98828.13;5050135;28;20067;-61
2021/06/11 09:16:06;;;;;;;0.10;0.10;;;;;;;22.66;22.38;98827.47;5058084;28;20041;-59
2021/06/11 09:18:32;;;;;;;0.03;0.03;;;;;;;22.56;22.40;98830.50;5048755;28;20092;-59
2021/06/11 09:20:58;;;;;;;0.25;0.25;;;;;;;22.34;22.62;98834.88;5052394;28;20135;-59
2021/06/11 09:23:23;;;;;;;0.20;0.20;;;;;;;22.11;22.92;98833.09;5048744;28;20025;-60
2021/06/11 09:25:49;;;;;;;0.40;0.28;;;;;;;22.00;22.93;98843.66;5048639;28;20127;-60
2021/06/11 09:28:26;;;;;;;0.10;0.10;;;;;;;21.79;23.11;98826.44;5102051;28;20036;-60
2021/06/11 09:30:56;;;;;;;0.20;0.20;;;;;;;21.65;23.42;98824.47;5110479;28;20102;-60
2021/06/11 09:33:24;;;;;;;0.10;0.10;;;;;;;21.62;23.37;98818.69;5110909;28;20027;-61
2021/06/11 09:35:55;;;;;;;0.20;0.20;;;;;;;21.67;23.08;98816.63;5111376;28;20024;-60
2021/06/11 09:38:29;;;;;;;0.65;0.32;;;;;;;21.72;23.28;98818.50;5111137;28;20085;-60
2021/06/11 09:40:57;;;;;;;0.10;0.10;;;;;;;21.98;22.94;98820.78;5110818;28;20035;-58
2021/06/11 09:43:26;;;;;;;0.20;0.10;;;;;;;22.36;22.52;98815.84;5110609;28;20097;-60
2021/06/11 09:46:03;;;;;;;0.10;0.10;;;;;;;22.81;22.17;98811.47;5111284;28;20107;-59
2021/06/11 09:48:38;;;;;;;0.20;0.20;;;;;;;23.06;21.75;98810.03;5110967;28;20122;-59
2021/06/11 09:51:12;;;;;;;0.15;0.15;;;;;;;23.47;21.49;98806.22;5111219;28;20080;-59
2021/06/11 09:53:38;;;;;;;0.10;0.10;;;;;;;23.86;21.14;98807.41;5110481;28;20562;-60
2021/06/11 09:56:04;;;;;;;0.05;0.05;;;;;;;24.22;20.99;98797.13;5110407;28;20069;-61
2021/06/11 09:58:34;;;;;;;0.20;0.20;;;;;;;24.61;20.61;98796.25;5111018;28;20046;-60
2021/06/11 10:01:02;;;;;;;0.10;0.10;;;;;;;24.96;20.20;98806.69;5110285;28;20039;-59
2021/06/11 10:10:20;;;;;;;0.08;0.08;;;;;;;24.38;21.26;98809.56;4956944;28;20773;-60
2021/06/11 10:12:47;;;;;;;0.10;0.10;;;;;;;24.08;21.40;98809.31;4964068;28;20042;-60
2021/06/11 10:15:14;;;;;;;0.00;0.00;;;;;;;23.75;21.79;98808.84;4949950;28;20042;-60
2021/06/11 10:17:43;;;;;;;0.08;0.08;;;;;;;23.47;22.04;98811.81;4949467;28;20110;-59
2021/06/11 10:20:14;;;;;;;0.25;0.25;;;;;;;23.27;22.47;98807.56;4963823;28;20030;-60
2021/06/11 10:22:40;;;;;;;0.10;0.10;;;;;;;23.21;22.25;98806.84;4969108;28;20046;-60
2021/06/11 10:25:12;;;;;;;0.17;0.17;;;;;;;23.19;22.30;98813.91;4968234;28;20180;-61
2021/06/11 10:27:42;;;;;;;0.20;0.20;;;;;;;23.01;22.78;98796.97;4967357;28;20038;-60
2021/06/11 10:30:09;;;;;;;0.13;0.13;;;;;;;22.89;22.92;98810.69;4959794;28;20043;-60
2021/06/11 10:32:40;;;;;;;0.15;0.15;;;;;;;22.78;22.85;98806.50;4969066;28;20038;-60
2021/06/11 10:35:07;;;;;;;0.10;0.10;;;;;;;22.70;22.78;98808.91;4968623;28;20118;-60
2021/06/11 10:37:39;;;;;;;0.25;0.25;;;;;;;22.68;22.67;98808.38;4968590;28;20094;-60
2021/06/11 10:40:31;;;;;;;0.20;0.20;;;;;;;22.69;22.79;98801.66;4968721;28;20603;-60
2021/06/11 10:43:20;;;;;;;0.10;0.10;;;;;;;22.77;22.80;98796.44;4997613;28;20037;-59
2021/06/11 10:45:47;;;;;;;0.75;0.45;;;;;;;22.87;22.68;98796.19;5051649;28;20037;-60
2021/06/11 10:48:13;;;;;;;0.20;0.15;;;;;;;22.89;22.44;98805.94;5103090;28;20099;-61
2021/06/11 10:50:39;;;;;;;0.10;0.10;;;;;;;22.82;22.65;98807.50;5105936;28;20485;-61
2021/06/11 10:53:13;;;;;;;0.10;0.10;;;;;;;22.77;22.70;98807.66;5114680;28;20161;-59
2021/06/11 10:55:46;;;;;;;0.10;0.10;;;;;;;22.75;22.69;98811.56;5114243;28;20232;-60
2021/06/11 10:58:11;;;;;;;0.10;0.10;;;;;;;22.81;22.66;98814.28;5114416;28;20106;-59
2021/06/11 11:00:40;;;;;;;0.00;0.00;;;;;;;22.94;22.35;98807.78;5114654;28;20036;-59
2021/06/11 11:03:08;;;;;;;0.10;0.10;;;;;;;22.94;22.40;98807.78;5114297;28;20111;-59
2021/06/11 11:05:36;;;;;;;0.10;0.10;;;;;;;22.92;22.67;98810.06;5097027;28;20035;-64
2021/06/11 11:08:07;;;;;;;0.43;0.30;;;;;;;22.92;22.50;98807.25;5114555;28;20031;-63
2021/06/11 11:10:40;;;;;;;0.10;0.10;;;;;;;22.84;22.67;98813.63;5100279;28;20046;-63
2021/06/11 11:13:12;;;;;;;0.10;0.10;;;;;;;22.81;22.65;98801.09;5114172;28;20027;-63
2021/06/11 11:15:39;;;;;;;1.60;0.40;;;;;;;22.83;22.82;98812.78;5113769;28;20038;-64
2021/06/11 11:18:13;;;;;;;0.90;0.63;;;;;;;22.92;22.64;98810.06;5114321;28;20032;-60
2021/06/11 11:20:41;;;;;;;0.03;0.03;;;;;;;22.94;22.52;98802.19;5111217;28;20039;-62
2021/06/11 11:33:24;;;;;;;0.00;0.00;;;;;;;23.04;22.52;98801.94;4920378;29;20144;-62
2021/06/11 11:35:53;;;;;;;0.10;0.10;;;;;;;22.92;22.68;98807.25;4933495;29;20052;-66
2021/06/11 11:38:19;;;;;;;0.30;0.30;;;;;;;22.84;22.85;98796.84;4933658;29;20475;-62
2021/06/11 11:40:45;;;;;;;0.08;0.08;;;;;;;22.90;22.74;98806.75;4933811;29;20067;-60
2021/06/11 11:43:11;;;;;;;0.10;0.10;;;;;;;22.94;22.92;98802.19;4933247;29;20402;-64
2021/06/11 11:45:37;;;;;;;0.03;0.03;;;;;;;23.00;22.59;98800.09;4933675;29;20071;-64
2021/06/11 11:48:06;;;;;;;0.05;0.05;;;;;;;22.94;22.76;98793.78;4917451;29;20043;-61
2021/06/11 11:50:33;;;;;;;0.05;0.05;;;;;;;22.97;22.55;98790.34;4933378;29;20079;-62
2021/06/11 11:52:59;;;;;;;0.10;0.10;;;;;;;23.09;22.62;98795.38;4933139;29;20066;-61
2021/06/11 11:55:26;;;;;;;0.28;0.28;;;;;;;23.07;22.68;98795.69;4933118;29;20067;-63
2021/06/11 11:57:53;;;;;;;0.10;0.10;;;;;;;23.00;22.52;98781.31;4932304;29;20555;-62
2021/06/11 12:00:19;;;;;;;0.10;0.10;;;;;;;22.86;22.70;98784.16;4931416;29;20047;-62
2021/06/11 12:02:45;;;;;;;0.50;0.50;;;;;;;22.75;22.83;98775.19;4941858;28;20046;-62
2021/06/11 12:05:13;;;;;;;0.10;0.10;;;;;;;22.70;22.78;98789.31;4963275;28;20448;-60
2021/06/11 12:07:39;;;;;;;0.10;0.10;;;;;;;22.60;22.98;98781.16;5026810;28;20147;-61
2021/06/11 12:10:06;;;;;;;0.10;0.10;;;;;;;22.61;22.99;98790.38;5077827;28;20035;-63
2021/06/11 12:12:35;;;;;;;0.38;0.38;;;;;;;22.62;23.00;98778.88;5111624;28;20578;-59
2021/06/11 12:15:01;;;;;;;0.10;0.10;;;;;;;22.59;23.08;98776.69;5109474;28;20020;-60
2021/06/11 12:17:26;;;;;;;0.10;0.10;;;;;;;22.56;23.10;98777.34;5110751;28;20138;-58
2021/06/11 12:19:52;;;;;;;0.25;0.25;;;;;;;22.58;23.21;98780.63;5111887;28;20471;-59
2021/06/11 12:22:18;;;;;;;0.10;0.10;;;;;;;22.67;23.18;98794.72;5112497;28;20042;-60
2021/06/11 12:24:45;;;;;;;0.08;0.08;;;;;;;22.72;22.90;98777.81;5104417;28;20052;-59
2021/06/11 12:27:11;;;;;;;0.20;0.20;;;;;;;22.73;23.02;98774.69;5104914;28;20408;-59
2021/06/11 12:29:37;;;;;;;0.10;0.10;;;;;;;22.69;23.13;98784.03;5112432;27;20397;-60
2021/06/11 12:32:04;;;;;;;0.10;0.10;;;;;;;22.69;22.96;98779.25;5111467;28;20042;-59
2021/06/11 12:34:30;;;;;;;0.10;0.10;;;;;;;22.64;23.07;98773.78;5111168;28;20036;-57
2021/06/11 12:36:56;;;;;;;0.00;0.00;;;;;;;22.56;23.14;98774.53;5111581;28;20085;-59
2021/06/11 12:39:23;;;;;;;0.17;0.10;;;;;;;22.59;23.13;98778.69;5112057;28;20020;-61
2021/06/11 12:42:00;;;;;;;0.10;0.10;;;;;;;22.60;23.13;98775.56;5111348;28;20036;-60
2021/06/11 12:48:12;;;;;;;0.10;0.10;;;;;;;22.43;23.26;98769.81;4997687;28;20065;-61
2021/06/11 12:50:41;;;;;;;0.30;0.30;;;;;;;22.43;23.25;98769.81;4992911;28;20112;-61
2021/06/11 12:53:07;;;;;;;0.10;0.10;;;;;;;22.36;23.43;98776.66;4989247;28;20046;-61
2021/06/11 12:55:40;;;;;;;0.30;0.25;;;;;;;22.26;23.53;98774.06;5006837;28;20030;-61
2021/06/11 12:58:06;;;;;;;0.10;0.10;;;;;;;22.16;23.45;98777.09;5009219;28;20149;-60
2021/06/11 13:00:32;;;;;;;0.20;0.20;;;;;;;22.20;23.49;98761.31;5008616;28;20041;-61
2021/06/11 13:02:58;;;;;;;0.10;0.10;;;;;;;22.27;23.29;98775.69;5005332;28;20042;-58
2021/06/11 13:05:27;;;;;;;0.00;0.00;;;;;;;22.40;23.11;98774.06;4994932;28;20147;-61
2021/06/11 13:07:55;;;;;;;0.10;0.10;;;;;;;22.63;23.24;98766.53;4988963;28;20038;-60
2021/06/11 13:10:21;;;;;;;0.25;0.17;;;;;;;22.81;23.22;98772.28;4972825;28;20089;-60
2021/06/11 13:12:47;;;;;;;0.20;0.20;;;;;;;22.96;22.72;98774.69;5004355;28;20050;-59
2021/06/11 13:15:14;;;;;;;0.10;0.10;;;;;;;23.13;22.69;98770.38;5008952;28;20400;-60
2021/06/11 13:17:40;;;;;;;0.10;0.10;;;;;;;23.29;22.50;98766.03;4992206;28;20166;-60
2021/06/11 13:20:07;;;;;;;0.20;0.20;;;;;;;23.39;22.33;98765.75;4986446;28;20113;-59
2021/06/11 13:22:32;;;;;;;0.35;0.20;;;;;;;23.33;22.19;98758.66;4993313;28;20080;-59
2021/06/11 13:24:58;;;;;;;0.20;0.20;;;;;;;23.39;22.41;98762.97;5064919;28;20532;-60
2021/06/11 13:27:24;;;;;;;0.10;0.10;;;;;;;23.49;22.36;98758.25;5092820;28;20032;-60
2021/06/11 13:29:50;;;;;;;0.32;0.20;;;;;;;23.55;22.42;98763.38;5106829;28;20039;-59
2021/06/11 13:32:17;;;;;;;0.00;0.00;;;;;;;23.59;22.31;98752.38;5111230;28;20030;-59
2021/06/11 13:34:43;;;;;;;0.10;0.10;;;;;;;23.70;22.29;98758.50;5092430;28;20045;-58
2021/06/11 13:37:08;;;;;;;0.00;0.00;;;;;;;23.79;22.00;98771.41;5110487;28;20499;-60
2021/06/11 13:39:34;;;;;;;0.00;0.00;;;;;;;23.91;21.92;98761.56;5111130;28;20396;-61
2021/06/11 13:42:00;;;;;;;0.30;0.30;;;;;;;24.01;22.07;98766.88;5110342;28;20031;-60
2021/06/11 13:44:26;;;;;;;0.10;0.10;;;;;;;24.10;21.68;98761.28;5092479;28;20128;-60
2021/06/11 13:46:51;;;;;;;0.00;0.00;;;;;;;24.09;21.89;98768.06;5110026;28;20043;-59
2021/06/11 13:49:17;;;;;;;0.10;0.10;;;;;;;24.02;22.18;98760.13;5110760;28;20603;-58
2021/06/11 13:51:43;;;;;;;0.00;0.00;;;;;;;23.99;21.91;98762.78;5110247;28;20023;-58
2021/06/11 13:54:09;;;;;;;0.15;0.10;;;;;;;24.04;21.96;98755.03;5110671;28;20031;-62
2021/06/11 13:56:35;;;;;;;0.20;0.20;;;;;;;24.10;22.04;98769.72;5110314;28;20032;-59
2021/06/11 13:59:01;;;;;;;0.10;0.10;;;;;;;24.19;22.01;98766.94;5099768;28;20590;-60
2021/06/11 14:01:47;;;;;;;0.35;0.35;;;;;;;24.20;21.79;98757.38;5110587;28;20023;-58
2021/06/11 14:04:12;;;;;;;0.00;0.00;;;;;;;24.13;22.12;98767.09;5108282;28;20031;-59
2021/06/11 14:06:38;;;;;;;0.10;0.10;;;;;;;24.08;22.01;98766.41;5109869;28;20039;-60
2021/06/11 14:09:04;;;;;;;0.40;0.40;;;;;;;23.96;21.88;98758.63;5109981;28;20042;-61
2021/06/11 14:11:31;;;;;;;0.10;0.10;;;;;;;23.86;22.26;98767.34;5110357;28;20039;-62
2021/06/11 14:13:57;;;;;;;0.00;0.00;;;;;;;23.84;22.08;98755.59;5110134;28;20036;-60
2021/06/11 14:16:23;;;;;;;0.28;0.28;;;;;;;23.82;21.91;98766.28;5094860;28;20027;-59
2021/06/11 14:18:49;;;;;;;0.30;0.20;;;;;;;23.79;22.02;98760.19;5110186;28;20070;-60
2021/06/11 14:21:14;;;;;;;0.10;0.10;;;;;;;23.71;22.30;98763.78;5108132;28;20092;-60
2021/06/11 14:23:40;;;;;;;0.20;0.20;;;;;;;23.57;22.33;98765.84;5108347;28;20031;-60
2021/06/11 14:26:06;;;;;;;0.57;0.57;;;;;;;23.31;22.50;98748.94;5109245;28;20151;-60
2021/06/11 14:28:32;;;;;;;0.10;0.10;;;;;;;23.05;23.21;98757.97;5108383;28;20056;-61
2021/06/11 14:30:58;;;;;;;0.10;0.10;;;;;;;22.80;23.09;98762.22;5109094;28;20461;-61
2021/06/11 14:33:24;;;;;;;0.32;0.32;;;;;;;22.52;23.36;98751.13;5109790;28;20115;-60
2021/06/11 14:35:50;;;;;;;0.08;0.08;;;;;;;22.44;23.50;98760.25;5109498;28;20038;-58
2021/06/11 14:38:17;;;;;;;0.10;0.10;;;;;;;22.33;23.53;98754.88;5109473;28;20035;-59
2021/06/11 14:40:43;;;;;;;0.00;0.00;;;;;;;22.25;23.76;98758.41;5090536;28;20024;-58
2021/06/11 14:43:09;;;;;;;0.00;0.00;;;;;;;22.10;23.48;98754.00;5109920;28;20046;-60
2021/06/11 14:45:35;;;;;;;0.10;0.10;;;;;;;21.99;23.77;98756.16;5109041;28;20514;-60
2021/06/11 14:48:01;;;;;;;0.03;0.03;;;;;;;21.95;23.74;98755.16;5109545;28;20115;-61
2021/06/11 14:50:27;;;;;;;0.20;0.20;;;;;;;21.92;23.71;98758.53;5099120;28;20028;-61
2021/06/11 14:52:56;;;;;;;0.10;0.10;;;;;;;21.81;23.90;98754.31;5109189;28;20141;-62
2021/06/11 14:55:25;;;;;;;0.20;0.08;;;;;;;21.73;24.01;98763.41;5109548;28;20515;-61
2021/06/11 14:57:51;;;;;;;0.20;0.20;;;;;;;21.60;24.11;98763.13;5109091;28;20441;-59
2021/06/11 15:00:18;;;;;;;0.22;0.20;;;;;;;21.50;23.93;98763.28;5108835;28;20134;-64
2021/06/11 15:02:44;;;;;;;0.10;0.10;;;;;;;21.37;24.12;98759.31;5110000;28;20027;-62
2021/06/11 15:05:13;;;;;;;0.30;0.30;;;;;;;21.27;24.31;98759.50;5109208;28;20043;-63
2021/06/11 15:07:42;;;;;;;0.30;0.30;;;;;;;21.09;24.30;98756.47;5109780;28;20035;-62
2021/06/11 15:10:09;;;;;;;0.00;0.00;;;;;;;20.91;24.59;98760.16;5109647;28;20039;-61
2021/06/11 15:12:34;;;;;;;0.17;0.17;;;;;;;20.80;24.71;98770.63;5108736;28;20038;-62
2021/06/11 15:15:00;;;;;;;0.45;0.45;;;;;;;20.76;24.71;98762.03;5109573;28;20540;-59
2021/06/11 15:17:29;;;;;;;0.10;0.10;;;;;;;20.70;24.76;98768.00;5091704;28;20629;-60
2021/06/11 15:19:57;;;;;;;0.10;0.10;;;;;;;20.67;24.86;98771.41;5109325;28;20038;-60
2021/06/11 15:22:23;;;;;;;0.00;0.00;;;;;;;20.60;24.65;98769.78;5109363;28;20115;-62
2021/06/11 15:24:49;;;;;;;0.10;0.10;;;;;;;20.55;24.90;98775.44;5096035;28;20142;-57
2021/06/11 15:27:14;;;;;;;0.10;0.10;;;;;;;20.50;24.91;98772.72;5109700;28;20043;-60
2021/06/11 15:29:43;;;;;;;0.10;0.10;;;;;;;20.44;24.98;98771.97;5112392;28;20035;-60
2021/06/11 15:32:09;;;;;;;0.10;0.10;;;;;;;20.40;25.06;98773.69;5113607;28;20035;-59
2021/06/11 15:34:36;;;;;;;0.10;0.10;;;;;;;20.37;24.75;98773.47;5113112;28;20369;-62
2021/06/11 15:37:03;;;;;;;0.22;0.22;;;;;;;20.30;25.17;98777.47;5100571;28;20032;-61
2021/06/11 15:39:29;;;;;;;0.10;0.10;;;;;;;20.23;25.17;98777.03;5112617;28;20106;-59
2021/06/11 15:41:55;;;;;;;0.10;0.10;;;;;;;20.16;25.26;98770.97;5112527;28;20034;-60
2021/06/11 15:44:20;;;;;;;0.47;0.35;;;;;;;20.09;25.15;98781.66;5094780;28;20031;-59
2021/06/11 15:50:13;;;;;;;0.20;0.20;;;;;;;19.89;25.45;98793.88;4983405;28;20512;-62